Time;durP1;ratioP1;P1;durP2;ratioP2;P2;SDS_P1;SDS_P2;PMS_P1;PMS_P2;Temp;Humidity;BMP_temperature;BMP_pressure;BME280_temperature;BME280_humidity;BME280_pressure;Samples;Min_cycle;Max_cycle;Signal;HPM_P1;HPM_P2
2023/01/16 00:03:07;;;;;;;6.53;2.30;;;;;;;-144.31;100.00;58022.63;5048948;28;20121;-58
2023/01/16 00:06:30;;;;;;;5.07;1.60;;;;;;;-144.31;100.00;58022.63;5032940;28;20136;-59
2023/01/16 00:09:54;;;;;;;4.63;1.80;;;;;;;-144.31;100.00;58022.63;5049397;28;20379;-59
2023/01/16 00:13:18;;;;;;;3.50;1.80;;;;;;;-144.31;100.00;58022.63;5030821;28;20076;-59
2023/01/16 00:16:43;;;;;;;4.85;1.75;;;;;;;-144.31;100.00;58022.63;5033260;28;20044;-59
2023/01/16 00:20:07;;;;;;;1.80;1.38;;;;;;;-144.31;100.00;58022.63;5036311;28;20140;-59
2023/01/16 00:23:31;;;;;;;6.05;2.08;;;;;;;-144.31;100.00;58022.63;5044938;28;20433;-59
2023/01/16 00:26:55;;;;;;;6.18;2.10;;;;;;;-144.31;100.00;58022.63;5035699;28;20033;-58
2023/01/16 00:30:19;;;;;;;6.53;2.00;;;;;;;-144.31;100.00;58022.63;5035706;28;20045;-58
2023/01/16 00:33:43;;;;;;;2.70;1.60;;;;;;;-144.31;100.00;58022.63;5038093;28;20133;-58
2023/01/16 00:37:08;;;;;;;9.88;2.15;;;;;;;-144.31;100.00;58022.63;5035763;28;20037;-58
2023/01/16 00:40:32;;;;;;;5.57;1.85;;;;;;;-144.31;100.00;58022.63;5034836;28;20049;-59
2023/01/16 00:43:58;;;;;;;4.03;1.83;;;;;;;-144.31;100.00;58022.63;5037824;28;20469;-59
2023/01/16 00:47:22;;;;;;;4.85;1.63;;;;;;;-144.31;100.00;58022.63;5034313;28;20041;-58
2023/01/16 00:50:46;;;;;;;4.90;2.05;;;;;;;-144.31;100.00;58022.63;5033593;28;20033;-58
2023/01/16 00:54:10;;;;;;;3.70;1.70;;;;;;;-144.31;100.00;58022.63;5038238;28;20041;-58
2023/01/16 00:57:34;;;;;;;3.78;1.90;;;;;;;-144.31;100.00;58022.63;5034848;28;20150;-58
2023/01/16 01:00:58;;;;;;;3.28;1.70;;;;;;;-144.31;100.00;58022.63;5038659;28;20029;-58
2023/01/16 01:04:22;;;;;;;6.85;1.73;;;;;;;-144.31;100.00;58022.63;5036432;28;20072;-56
2023/01/16 01:07:46;;;;;;;3.72;2.00;;;;;;;-144.31;100.00;58022.63;5036101;28;20037;-58
2023/01/16 01:11:11;;;;;;;4.53;1.90;;;;;;;-144.31;100.00;58022.63;5034553;28;20215;-58
2023/01/16 01:14:36;;;;;;;4.13;1.60;;;;;;;-144.31;100.00;58022.63;5038838;28;20173;-58
2023/01/16 01:18:00;;;;;;;3.17;1.52;;;;;;;-144.31;100.00;58022.63;5034881;28;20402;-58
2023/01/16 01:21:24;;;;;;;3.58;1.50;;;;;;;-144.31;100.00;58022.63;5037175;28;20033;-59
2023/01/16 01:24:48;;;;;;;5.65;1.77;;;;;;;-144.31;100.00;58022.63;5035663;28;20039;-59
2023/01/16 01:28:13;;;;;;;5.57;1.98;;;;;;;-144.31;100.00;58022.63;5036444;28;20132;-58
2023/01/16 01:31:37;;;;;;;3.53;1.67;;;;;;;-144.31;100.00;58022.63;5033204;28;20375;-58
2023/01/16 01:35:01;;;;;;;5.43;1.90;;;;;;;-144.31;100.00;58022.63;5034609;28;20033;-58
2023/01/16 01:38:25;;;;;;;5.53;2.00;;;;;;;-144.31;100.00;58022.63;5034478;28;20034;-58
2023/01/16 01:41:49;;;;;;;3.80;1.73;;;;;;;-144.31;100.00;58022.63;5030447;28;20119;-58
2023/01/16 01:45:31;;;;;;;4.35;1.90;;;;;;;-144.31;100.00;58022.63;5034140;28;20098;-58
2023/01/16 01:49:07;;;;;;;5.13;1.83;;;;;;;-144.31;100.00;58022.63;5041123;28;20040;-58
2023/01/16 01:52:34;;;;;;;4.65;1.80;;;;;;;-144.31;100.00;58022.63;5034978;28;20049;-58
2023/01/16 01:56:05;;;;;;;5.03;1.98;;;;;;;-144.31;100.00;58022.63;5036385;28;20037;-58
2023/01/16 01:59:33;;;;;;;7.70;1.98;;;;;;;-144.31;100.00;58022.63;5043178;28;20063;-58
2023/01/16 02:03:08;;;;;;;5.65;1.83;;;;;;;-144.31;100.00;58022.63;5034607;28;20040;-59
2023/01/16 02:06:49;;;;;;;4.20;1.60;;;;;;;-144.31;100.00;58022.63;5034459;28;20048;-57
2023/01/16 02:10:32;;;;;;;5.90;2.60;;;;;;;-144.31;100.00;58022.63;5032322;28;20478;-58
2023/01/16 02:13:59;;;;;;;14.75;5.97;;;;;;;-144.31;100.00;58022.63;5033329;28;20102;-58
2023/01/16 02:21:30;;;;;;;14.63;6.65;;;;;;;-144.31;100.00;58022.63;5032851;28;20069;-58
2023/01/16 02:25:07;;;;;;;7.40;3.50;;;;;;;-144.31;100.00;58022.63;5013049;28;20075;-58
2023/01/16 02:28:53;;;;;;;7.43;3.65;;;;;;;-144.31;100.00;58022.63;5038402;28;20075;-58
2023/01/16 02:32:36;;;;;;;11.75;5.15;;;;;;;-144.31;100.00;58022.63;5036419;28;20119;-58
2023/01/16 02:36:12;;;;;;;21.55;13.98;;;;;;;-144.31;100.00;58022.63;5034203;28;20033;-58
2023/01/16 02:39:50;;;;;;;13.07;6.45;;;;;;;-144.31;100.00;58022.63;5036567;28;20468;-58
2023/01/16 02:43:49;;;;;;;18.08;10.90;;;;;;;-144.31;100.00;58022.63;5034720;28;20037;-58
2023/01/16 02:47:31;;;;;;;15.27;9.35;;;;;;;-144.31;100.00;58022.63;5029487;28;20724;-58
2023/01/16 02:51:34;;;;;;;13.30;8.77;;;;;;;-144.31;100.00;58022.63;5033675;28;20049;-58
2023/01/16 02:55:15;;;;;;;13.40;6.80;;;;;;;-144.31;100.00;58022.63;5035218;28;20132;-58
2023/01/16 02:58:43;;;;;;;11.13;5.88;;;;;;;-144.31;100.00;58022.63;5036290;28;20045;-58
2023/01/16 03:02:08;;;;;;;7.25;4.50;;;;;;;-144.31;100.00;58022.63;5032726;28;20263;-58
2023/01/16 03:05:42;;;;;;;2.88;2.00;;;;;;;-144.31;100.00;58022.63;5038032;28;20037;-58
2023/01/16 03:09:23;;;;;;;3.85;2.10;;;;;;;-144.31;100.00;58022.63;5041982;28;20042;-59
2023/01/16 03:13:08;;;;;;;4.95;2.00;;;;;;;-144.31;100.00;58022.63;5035709;28;20071;-58
2023/01/16 03:16:53;;;;;;;3.53;1.77;;;;;;;-144.31;100.00;58022.63;5028737;28;20437;-59
2023/01/16 03:20:35;;;;;;;3.92;2.05;;;;;;;-144.31;100.00;58022.63;5033971;28;20462;-58
2023/01/16 03:24:36;;;;;;;5.60;1.83;;;;;;;-144.31;100.00;58022.63;5035692;28;20047;-58
2023/01/16 03:28:46;;;;;;;3.50;1.83;;;;;;;-144.31;100.00;58022.63;5037589;28;20123;-58
2023/01/16 03:32:42;;;;;;;2.28;1.50;;;;;;;-144.31;100.00;58022.63;5008035;28;20068;-58
2023/01/16 03:36:09;;;;;;;2.28;1.70;;;;;;;-144.31;100.00;58022.63;5032486;28;20033;-58
2023/01/16 03:39:37;;;;;;;5.07;1.88;;;;;;;-144.31;100.00;58022.63;5033483;28;20584;-58
2023/01/16 03:43:06;;;;;;;4.85;1.75;;;;;;;-144.31;100.00;58022.63;5030937;28;20168;-59
2023/01/16 03:46:39;;;;;;;4.25;2.13;;;;;;;-144.31;100.00;58022.63;5031653;28;20182;-58
2023/01/16 03:50:09;;;;;;;6.03;1.83;;;;;;;-144.31;100.00;58022.63;5042237;28;20071;-58
2023/01/16 03:53:46;;;;;;;2.33;1.63;;;;;;;-144.31;100.00;58022.63;5038182;28;20075;-58
2023/01/16 03:57:10;;;;;;;3.17;2.00;;;;;;;-144.31;100.00;58022.63;5037267;28;20037;-58
2023/01/16 04:00:54;;;;;;;5.20;1.90;;;;;;;-144.31;100.00;58022.63;5036774;28;20033;-58
2023/01/16 04:04:26;;;;;;;3.58;1.77;;;;;;;-144.31;100.00;58022.63;5037579;28;20856;-57
2023/01/16 04:08:05;;;;;;;3.70;1.60;;;;;;;-144.31;100.00;58022.63;5037213;28;20037;-59
2023/01/16 04:11:33;;;;;;;4.70;1.65;;;;;;;-144.31;100.00;58022.63;5039746;28;20055;-59
2023/01/16 04:15:00;;;;;;;5.07;1.75;;;;;;;-144.31;100.00;58022.63;5036596;28;20502;-59
2023/01/16 04:18:27;;;;;;;3.45;1.75;;;;;;;-144.31;100.00;58022.63;5035240;28;20117;-59
2023/01/16 04:21:51;;;;;;;1.98;1.50;;;;;;;-144.31;100.00;58022.63;5037641;28;20119;-59
2023/01/16 04:25:16;;;;;;;3.42;1.52;;;;;;;-144.31;100.00;58022.63;5034692;28;20049;-57
2023/01/16 04:28:40;;;;;;;6.07;1.80;;;;;;;-144.31;100.00;58022.63;5035318;28;20041;-57
2023/01/16 04:32:04;;;;;;;3.28;1.73;;;;;;;-144.31;100.00;58022.63;5036726;28;20608;-58
2023/01/16 04:35:28;;;;;;;6.78;1.98;;;;;;;-144.31;100.00;58022.63;5034724;28;20119;-57
2023/01/16 04:38:52;;;;;;;5.60;2.22;;;;;;;-144.31;100.00;58022.63;5036971;28;20041;-58
2023/01/16 04:42:16;;;;;;;6.78;2.33;;;;;;;-144.31;100.00;58022.63;5036112;28;20032;-58
2023/01/16 04:45:40;;;;;;;6.20;2.30;;;;;;;-144.31;100.00;58022.63;5038261;28;20042;-58
2023/01/16 04:49:05;;;;;;;4.55;1.85;;;;;;;-144.31;100.00;58022.63;5033867;28;20041;-56
2023/01/16 04:52:29;;;;;;;2.80;1.85;;;;;;;-144.31;100.00;58022.63;5036542;28;20037;-58
2023/01/16 04:55:53;;;;;;;5.38;1.80;;;;;;;-144.31;100.00;58022.63;5038873;28;20397;-58
2023/01/16 04:59:19;;;;;;;4.35;1.80;;;;;;;-144.31;100.00;58022.63;5037329;28;20032;-59
2023/01/16 05:02:43;;;;;;;4.70;1.92;;;;;;;-144.31;100.00;58022.63;5033263;28;20036;-59
2023/01/16 05:06:06;;;;;;;6.22;2.40;;;;;;;-144.31;100.00;58022.63;5035828;28;20037;-59
2023/01/16 05:09:30;;;;;;;6.95;2.08;;;;;;;-144.31;100.00;58022.63;5036269;28;20045;-58
2023/01/16 05:12:55;;;;;;;3.85;1.75;;;;;;;-144.31;100.00;58022.63;5034150;28;20134;-58
2023/01/16 05:16:18;;;;;;;4.30;2.28;;;;;;;-144.31;100.00;58022.63;5032594;28;20041;-58
2023/01/16 05:19:42;;;;;;;5.07;1.88;;;;;;;-144.31;100.00;58022.63;5032825;28;20956;-59
2023/01/16 05:23:05;;;;;;;5.13;2.00;;;;;;;-144.31;100.00;58022.63;5033674;28;20383;-59
2023/01/16 05:26:29;;;;;;;6.00;2.20;;;;;;;-144.31;100.00;58022.63;5033351;28;20045;-59
2023/01/16 05:29:53;;;;;;;3.58;2.03;;;;;;;-144.31;100.00;58022.63;5034387;28;20055;-59
2023/01/16 05:33:17;;;;;;;5.80;2.10;;;;;;;-144.31;100.00;58022.63;5037700;28;20037;-58
2023/01/16 05:36:41;;;;;;;5.47;2.05;;;;;;;-144.31;100.00;58022.63;5034529;28;20132;-58
2023/01/16 05:40:05;;;;;;;4.30;2.10;;;;;;;-144.31;100.00;58022.63;5032245;28;20079;-59
2023/01/16 05:43:29;;;;;;;3.00;1.85;;;;;;;-144.31;100.00;58022.63;5034248;28;20048;-60
2023/01/16 05:46:53;;;;;;;3.74;1.62;;;;;;;-144.31;100.00;58022.63;4998085;28;1073038;-58
2023/01/16 05:50:16;;;;;;;4.63;1.70;;;;;;;-144.31;100.00;58022.63;5035421;28;20045;-59
2023/01/16 05:53:40;;;;;;;4.25;1.75;;;;;;;-144.31;100.00;58022.63;5035502;28;20401;-58
2023/01/16 05:57:06;;;;;;;3.92;1.83;;;;;;;-144.31;100.00;58022.63;5036623;28;20045;-58
2023/01/16 06:00:29;;;;;;;3.28;1.70;;;;;;;-144.31;100.00;58022.63;5035968;28;20041;-58
2023/01/16 06:03:53;;;;;;;8.77;1.85;;;;;;;-144.31;100.00;58022.63;5034809;28;20029;-59
2023/01/16 06:07:17;;;;;;;6.28;1.88;;;;;;;-144.31;100.00;58022.63;5034960;28;20120;-57
2023/01/16 06:10:41;;;;;;;4.65;1.83;;;;;;;-144.31;100.00;58022.63;5032168;28;20055;-58
2023/01/16 06:14:04;;;;;;;4.38;1.80;;;;;;;-144.31;100.00;58022.63;5029251;28;20069;-58
2023/01/16 06:17:32;;;;;;;5.10;2.00;;;;;;;-144.31;100.00;58022.63;5033846;28;20037;-58
2023/01/16 06:20:56;;;;;;;2.58;1.50;;;;;;;-144.31;100.00;58022.63;5034065;28;20061;-58
2023/01/16 06:24:20;;;;;;;2.47;1.63;;;;;;;-144.31;100.00;58022.63;5036009;28;20504;-58
2023/01/16 06:27:47;;;;;;;5.50;1.90;;;;;;;-144.31;100.00;58022.63;5029937;28;20037;-58
2023/01/16 06:31:11;;;;;;;4.30;2.13;;;;;;;-144.31;100.00;58022.63;5037562;28;20112;-58
2023/01/16 06:34:35;;;;;;;5.68;1.80;;;;;;;-144.31;100.00;58022.63;5031194;28;20037;-59
2023/01/16 06:37:59;;;;;;;4.00;1.67;;;;;;;-144.31;100.00;58022.63;5034610;28;20098;-58
2023/01/16 06:41:23;;;;;;;3.03;1.58;;;;;;;-144.31;100.00;58022.63;5035773;28;20069;-58
2023/01/16 06:44:47;;;;;;;4.60;1.65;;;;;;;-144.31;100.00;58022.63;5036551;28;20056;-58
2023/01/16 06:48:11;;;;;;;4.07;2.03;;;;;;;-144.31;100.00;58022.63;5034034;28;20041;-58
2023/01/16 06:51:35;;;;;;;3.72;2.10;;;;;;;-144.31;100.00;58022.63;5033647;28;20037;-58
2023/01/16 06:54:59;;;;;;;4.25;1.90;;;;;;;-144.31;100.00;58022.63;5034268;28;20036;-58
2023/01/16 06:58:23;;;;;;;5.72;2.53;;;;;;;-144.31;100.00;58022.63;5034056;28;20029;-59
2023/01/16 07:01:47;;;;;;;4.50;2.55;;;;;;;-144.31;100.00;58022.63;5033531;28;20033;-59
2023/01/16 07:05:11;;;;;;;3.72;1.80;;;;;;;-144.31;100.00;58022.63;5034696;28;20034;-59
2023/01/16 07:08:35;;;;;;;5.68;2.17;;;;;;;-144.31;100.00;58022.63;5033237;28;20041;-59
2023/01/16 07:11:59;;;;;;;2.95;1.98;;;;;;;-144.31;100.00;58022.63;5033563;28;20041;-58
2023/01/16 07:22:55;;;;;;;6.00;2.00;;;;;;;-144.31;100.00;58022.63;5034505;28;20116;-59
2023/01/16 07:26:21;;;;;;;3.50;1.80;;;;;;;-144.31;100.00;58022.63;5047541;28;20049;-59
2023/01/16 07:29:47;;;;;;;3.08;1.90;;;;;;;-144.31;100.00;58022.63;5034030;28;20505;-59
2023/01/16 07:33:11;;;;;;;3.50;1.83;;;;;;;-144.31;100.00;58022.63;5031937;28;20381;-59
2023/01/16 07:36:35;;;;;;;4.65;1.95;;;;;;;-144.31;100.00;58022.63;5031558;28;20033;-59
2023/01/16 07:39:59;;;;;;;4.10;1.90;;;;;;;-144.31;100.00;58022.63;5033881;28;20038;-59
2023/01/16 07:43:23;;;;;;;2.10;1.70;;;;;;;-144.31;100.00;58022.63;5033579;28;20044;-60
2023/01/16 07:46:47;;;;;;;3.17;1.70;;;;;;;-144.31;100.00;58022.63;5035250;28;20496;-58
2023/01/16 07:50:11;;;;;;;3.50;1.90;;;;;;;-144.31;100.00;58022.63;5031534;28;20034;-58
2023/01/16 07:53:35;;;;;;;3.17;1.73;;;;;;;-144.31;100.00;58022.63;5041722;28;20574;-59
2023/01/16 07:56:59;;;;;;;6.82;2.03;;;;;;;-144.31;100.00;58022.63;5035056;28;20078;-63
2023/01/16 08:00:23;;;;;;;4.85;2.10;;;;;;;-144.31;100.00;58022.63;5028807;28;20478;-58
2023/01/16 08:03:47;;;;;;;4.65;2.10;;;;;;;-144.31;100.00;58022.63;5032855;28;20037;-54
2023/01/16 08:07:11;;;;;;;4.30;2.10;;;;;;;-144.31;100.00;58022.63;5032316;28;20120;-58
2023/01/16 08:10:36;;;;;;;2.67;1.70;;;;;;;-144.31;100.00;58022.63;5031465;28;20512;-58
2023/01/16 08:14:00;;;;;;;4.00;1.85;;;;;;;-144.31;100.00;58022.63;5031952;28;20033;-59
2023/01/16 08:17:24;;;;;;;2.85;1.80;;;;;;;-144.31;100.00;58022.63;5031363;28;20034;-58
2023/01/16 08:20:48;;;;;;;3.15;2.00;;;;;;;-144.31;100.00;58022.63;5034622;28;20301;-59
2023/01/16 08:24:13;;;;;;;4.40;2.10;;;;;;;-144.31;100.00;58022.63;5033098;28;20375;-58
2023/01/16 08:27:38;;;;;;;1.67;1.55;;;;;;;-144.31;100.00;58022.63;5030597;28;20045;-58
2023/01/16 08:31:04;;;;;;;3.45;1.70;;;;;;;-144.31;100.00;58022.63;5030947;28;20540;-59
2023/01/16 08:34:28;;;;;;;3.22;1.70;;;;;;;-144.31;100.00;58022.63;5040000;28;20069;-58
2023/01/16 08:37:52;;;;;;;4.13;1.80;;;;;;;-144.31;100.00;58022.63;5030027;28;20072;-59
2023/01/16 08:52:30;;;;;;;4.32;2.08;;;;;;;-144.31;100.00;58022.63;5033230;28;20045;-60
2023/01/16 08:55:54;;;;;;;3.40;1.50;;;;;;;-144.31;100.00;58022.63;5034923;28;20058;-59
2023/01/16 08:59:18;;;;;;;2.42;1.40;;;;;;;-144.31;100.00;58022.63;5031469;28;20044;-59
2023/01/16 09:02:42;;;;;;;3.28;1.52;;;;;;;-144.31;100.00;58022.63;5034049;28;20041;-59
2023/01/16 09:06:07;;;;;;;2.75;1.50;;;;;;;-144.31;100.00;58022.63;5032743;28;20033;-59
2023/01/16 09:09:31;;;;;;;1.80;1.50;;;;;;;-144.31;100.00;58022.63;5035224;28;20072;-59
2023/01/16 09:16:38;;;;;;;1.85;1.33;;;;;;;-144.31;100.00;58022.63;5033976;28;20041;-60
2023/01/16 09:20:02;;;;;;;6.88;2.10;;;;;;;-144.31;100.00;58022.63;5030273;28;20075;-60
2023/01/16 09:23:26;;;;;;;6.68;3.88;;;;;;;-144.31;100.00;58022.63;5035577;28;20123;-59
2023/01/16 09:26:50;;;;;;;3.15;1.60;;;;;;;-144.31;100.00;58022.63;5031310;28;20405;-59
2023/01/16 09:30:14;;;;;;;3.17;1.50;;;;;;;-144.31;100.00;58022.63;5035002;28;20469;-60
2023/01/16 09:33:38;;;;;;;3.35;2.17;;;;;;;-144.31;100.00;58022.63;5033463;28;20049;-59
2023/01/16 09:37:03;;;;;;;4.30;2.53;;;;;;;-144.31;100.00;58022.63;5034436;28;20044;-60
2023/01/16 09:40:27;;;;;;;4.22;1.70;;;;;;;-144.31;100.00;58022.63;5034640;28;20045;-59
2023/01/16 09:44:06;;;;;;;4.25;2.30;;;;;;;-144.31;100.00;58022.63;5033925;28;20087;-59
2023/01/16 09:47:34;;;;;;;5.20;3.30;;;;;;;-144.31;100.00;58022.63;5033851;28;20045;-59
2023/01/16 09:51:07;;;;;;;4.40;3.13;;;;;;;-144.31;100.00;58022.63;5034039;28;20063;-60
2023/01/16 09:58:55;;;;;;;1.92;1.70;;;;;;;-144.31;100.00;58022.63;5012731;28;20034;-58
2023/01/16 10:02:33;;;;;;;3.45;1.60;;;;;;;-144.31;100.00;58022.63;5011520;28;20038;-58
2023/01/16 10:05:58;;;;;;;2.20;1.50;;;;;;;-144.31;100.00;58022.63;5033685;28;20447;-59
2023/01/16 10:10:04;;;;;;;3.58;1.58;;;;;;;-144.31;100.00;58022.63;5032610;28;20041;-58
2023/01/16 10:13:30;;;;;;;1.88;1.30;;;;;;;-144.31;100.00;58022.63;5038977;28;20077;-59
2023/01/16 10:17:09;;;;;;;1.30;1.20;;;;;;;-144.31;100.00;58022.63;5034692;28;20064;-58
2023/01/16 10:20:56;;;;;;;4.38;1.35;;;;;;;-144.31;100.00;58022.63;5034240;28;20037;-58
2023/01/16 10:24:28;;;;;;;2.80;1.40;;;;;;;-144.31;100.00;58022.63;5031745;28;20041;-58
2023/01/16 10:28:02;;;;;;;1.98;1.35;;;;;;;-144.31;100.00;58022.63;5033974;28;20032;-58
2023/01/16 10:31:28;;;;;;;2.10;1.60;;;;;;;-144.31;100.00;58022.63;5032781;28;20418;-59
2023/01/16 10:35:00;;;;;;;4.20;1.70;;;;;;;-144.31;100.00;58022.63;5032772;28;20037;-59
2023/01/16 10:38:43;;;;;;;2.95;1.67;;;;;;;-144.31;100.00;58022.63;5032412;28;20051;-59
2023/01/16 10:49:55;;;;;;;3.50;1.63;;;;;;;-144.31;100.00;58022.63;5033105;28;20137;-58
2023/01/16 10:53:19;;;;;;;2.20;1.50;;;;;;;-144.31;100.00;58022.63;5029918;28;20038;-59
2023/01/16 10:56:45;;;;;;;2.53;1.50;;;;;;;-144.31;100.00;58022.63;5032948;28;20043;-58
2023/01/16 11:00:25;;;;;;;1.55;1.40;;;;;;;-144.31;100.00;58022.63;5030386;28;20037;-60
2023/01/16 11:03:51;;;;;;;1.80;1.30;;;;;;;-144.31;100.00;58022.63;5031661;28;20496;-59
2023/01/16 11:07:21;;;;;;;1.42;1.15;;;;;;;-144.31;100.00;58022.63;5033415;28;20935;-59
2023/01/16 11:10:46;;;;;;;2.17;1.40;;;;;;;-144.31;100.00;58022.63;5029720;28;20119;-59
2023/01/16 11:18:28;;;;;;;3.25;1.40;;;;;;;-144.31;100.00;58022.63;5031469;28;20116;-60
2023/01/16 11:21:54;;;;;;;2.78;1.48;;;;;;;-144.31;100.00;58022.63;5031788;28;20041;-60
2023/01/16 11:25:21;;;;;;;2.35;1.60;;;;;;;-144.31;100.00;58022.63;5031639;28;20068;-59
2023/01/16 11:28:47;;;;;;;1.77;1.35;;;;;;;-144.31;100.00;58022.63;5031652;28;20065;-59
2023/01/16 11:32:27;;;;;;;1.55;1.23;;;;;;;-144.31;100.00;58022.63;5032616;28;20044;-59
2023/01/16 11:35:54;;;;;;;2.47;1.52;;;;;;;-144.31;100.00;58022.63;5046876;28;20686;-59
2023/01/16 11:39:21;;;;;;;2.20;1.63;;;;;;;-144.31;100.00;58022.63;5031992;28;20356;-58
2023/01/16 11:46:41;;;;;;;2.92;1.75;;;;;;;-144.31;100.00;58022.63;5032881;28;20124;-59
2023/01/16 11:50:35;;;;;;;3.10;1.80;;;;;;;-144.31;100.00;58022.63;5030897;28;20033;-60
2023/01/16 11:54:01;;;;;;;1.60;1.35;;;;;;;-144.31;100.00;58022.63;5026329;28;20866;-60
2023/01/16 11:57:44;;;;;;;1.55;1.38;;;;;;;-144.31;100.00;58022.63;5030228;28;20047;-60
2023/01/16 12:02:15;;;;;;;3.00;1.48;;;;;;;-144.31;100.00;58022.63;5031241;28;20040;-58
2023/01/16 12:05:54;;;;;;;2.33;1.30;;;;;;;-144.31;100.00;58022.63;5033238;28;20060;-59
2023/01/16 12:09:35;;;;;;;2.28;1.77;;;;;;;-144.31;100.00;58022.63;5031436;28;20079;-58
2023/01/16 12:17:21;;;;;;;2.05;1.50;;;;;;;-144.31;100.00;58022.63;5033695;28;20072;-59
2023/01/16 12:21:01;;;;;;;7.88;2.92;;;;;;;-144.31;100.00;58022.63;4996279;28;20049;-59
2023/01/16 12:24:48;;;;;;;31.00;10.18;;;;;;;-144.31;100.00;58022.63;5036655;28;20509;-59
2023/01/16 12:28:23;;;;;;;39.97;15.90;;;;;;;-144.31;100.00;58022.63;5033827;28;20079;-59
2023/01/16 12:32:17;;;;;;;32.72;11.63;;;;;;;-144.31;100.00;58022.63;5037285;28;20120;-59
2023/01/16 12:35:56;;;;;;;2.42;1.50;;;;;;;-144.31;100.00;58022.63;5035455;28;20049;-59
2023/01/16 12:39:30;;;;;;;3.35;1.95;;;;;;;-144.31;100.00;58022.63;5035518;28;20034;-59
2023/01/16 12:43:19;;;;;;;6.18;3.00;;;;;;;-144.31;100.00;58022.63;5032868;28;20041;-60
2023/01/16 12:47:12;;;;;;;4.78;2.78;;;;;;;-144.31;100.00;58022.63;5033894;28;20215;-59
2023/01/16 12:51:05;;;;;;;6.80;3.72;;;;;;;-144.31;100.00;58022.63;5032480;28;20073;-59
2023/01/16 12:54:47;;;;;;;10.80;4.70;;;;;;;-144.31;100.00;58022.63;5033361;28;20041;-58
2023/01/16 12:58:37;;;;;;;4.05;2.70;;;;;;;-144.31;100.00;58022.63;5031502;28;20061;-59
2023/01/16 13:02:12;;;;;;;5.60;2.80;;;;;;;-144.31;100.00;58022.63;5030101;28;20106;-59
2023/01/16 13:05:42;;;;;;;3.70;2.15;;;;;;;-144.31;100.00;58022.63;5033103;28;20045;-59
2023/01/16 13:09:35;;;;;;;4.40;2.50;;;;;;;-144.31;100.00;58022.63;5034534;28;20036;-59
2023/01/16 13:13:25;;;;;;;3.28;1.88;;;;;;;-144.31;100.00;58022.63;5035121;28;20079;-59
2023/01/16 13:17:01;;;;;;;4.28;2.55;;;;;;;-144.31;100.00;58022.63;5033319;28;20025;-59
2023/01/16 13:20:28;;;;;;;2.88;1.60;;;;;;;-144.31;100.00;58022.63;5032211;28;20049;-59
2023/01/16 13:24:20;;;;;;;2.25;1.30;;;;;;;-144.31;100.00;58022.63;5036159;28;20104;-59
2023/01/16 13:28:00;;;;;;;1.50;1.40;;;;;;;-144.31;100.00;58022.63;5033311;28;20160;-60
2023/01/16 13:31:45;;;;;;;1.58;1.27;;;;;;;-144.31;100.00;58022.63;5034387;28;20038;-59
2023/01/16 13:35:20;;;;;;;2.50;1.70;;;;;;;-144.31;100.00;58022.63;5035187;28;20037;-59
2023/01/16 13:38:59;;;;;;;1.67;1.45;;;;;;;-144.31;100.00;58022.63;5035044;28;20574;-60
2023/01/16 13:42:29;;;;;;;2.42;1.63;;;;;;;-144.31;100.00;58022.63;5042050;28;20048;-59
2023/01/16 13:45:59;;;;;;;1.40;1.27;;;;;;;-144.31;100.00;58022.63;5033514;28;20044;-60
2023/01/16 13:49:28;;;;;;;2.55;1.55;;;;;;;-144.31;100.00;58022.63;5037181;28;20136;-60
2023/01/16 13:53:02;;;;;;;2.05;1.42;;;;;;;-144.31;100.00;58022.63;5034490;28;20041;-61
2023/01/16 13:56:31;;;;;;;2.30;1.50;;;;;;;-144.31;100.00;58022.63;5038997;28;20389;-61
2023/01/16 14:00:13;;;;;;;1.40;1.30;;;;;;;-144.31;100.00;58022.63;5032118;28;20733;-61
2023/01/16 14:04:02;;;;;;;2.05;1.52;;;;;;;-144.31;100.00;58022.63;5033125;28;20056;-59
2023/01/16 14:11:39;;;;;;;2.03;1.30;;;;;;;-144.31;100.00;58022.63;5037379;28;20055;-60
2023/01/16 14:19:14;;;;;;;1.60;1.40;;;;;;;-144.31;100.00;58022.63;5034749;28;20045;-65
2023/01/16 14:26:30;;;;;;;1.63;1.30;;;;;;;-144.31;100.00;58022.63;5033578;28;20033;-60
2023/01/16 14:29:56;;;;;;;1.88;1.30;;;;;;;-144.31;100.00;58022.63;5032292;28;20033;-61
2023/01/16 14:33:21;;;;;;;;;;;;;;;-144.31;100.00;58022.63;5032333;28;20041;-60
2023/01/16 14:36:50;;;;;;;1.58;1.30;;;;;;;-144.31;100.00;58022.63;5032014;28;20014;-61
2023/01/16 14:56:06;;;;;;;1.45;1.20;;;;;;;-144.31;100.00;58022.63;5031457;28;20413;-59
2023/01/16 15:00:02;;;;;;;1.75;1.42;;;;;;;-144.31;100.00;58022.63;5034014;28;20045;-59
2023/01/16 15:03:41;;;;;;;4.28;1.60;;;;;;;-144.31;100.00;58022.63;5033352;28;20031;-60
2023/01/16 15:07:07;;;;;;;1.95;1.30;;;;;;;-144.31;100.00;58022.63;5029317;28;20087;-59
2023/01/16 15:10:42;;;;;;;;;;;;;;;-144.31;100.00;58022.63;5033458;28;20041;-59
2023/01/16 15:21:57;;;;;;;2.40;1.40;;;;;;;-144.31;100.00;58022.63;5031498;28;20037;-59
2023/01/16 15:25:41;;;;;;;2.22;1.40;;;;;;;-144.31;100.00;58022.63;5031416;28;20037;-59
2023/01/16 15:29:12;;;;;;;2.35;1.67;;;;;;;-144.31;100.00;58022.63;5040191;28;20501;-59
2023/01/16 15:36:53;;;;;;;1.73;1.30;;;;;;;-144.31;100.00;58022.63;5034592;28;20053;-60
2023/01/16 15:40:35;;;;;;;1.98;1.40;;;;;;;-144.31;100.00;58022.63;5033446;28;20099;-60
2023/01/16 15:47:50;;;;;;;4.90;1.80;;;;;;;-144.31;100.00;58022.63;5032083;28;20520;-59
2023/01/16 15:51:29;;;;;;;1.98;1.33;;;;;;;-144.31;100.00;58022.63;5036794;28;20037;-59
2023/01/16 15:54:55;;;;;;;2.00;1.50;;;;;;;-144.31;100.00;58022.63;5040251;28;20171;-60
2023/01/16 15:58:23;;;;;;;3.65;1.63;;;;;;;-144.31;100.00;58022.63;5028172;28;20060;-60
2023/01/16 16:02:08;;;;;;;2.67;1.77;;;;;;;-144.31;100.00;58022.63;5027707;28;20099;-60
2023/01/16 16:05:32;;;;;;;5.50;2.72;;;;;;;-144.31;100.00;58022.63;5029941;28;20037;-60
2023/01/16 16:09:02;;;;;;;4.50;2.30;;;;;;;-144.31;100.00;58022.63;5025903;28;20072;-60
2023/01/16 16:12:28;;;;;;;2.30;1.70;;;;;;;-144.31;100.00;58022.63;5026946;28;20073;-59
2023/01/16 16:20:21;;;;;;;5.47;2.40;;;;;;;-144.31;100.00;58022.63;5027584;28;20913;-59
2023/01/16 16:23:45;;;;;;;7.03;3.10;;;;;;;-144.31;100.00;58022.63;5025117;28;20038;-58
2023/01/16 16:27:13;;;;;;;3.17;1.92;;;;;;;-144.31;100.00;58022.63;5035264;28;20033;-58
2023/01/16 16:30:38;;;;;;;4.05;2.15;;;;;;;-144.31;100.00;58022.63;5034643;28;20103;-60
2023/01/16 16:34:02;;;;;;;6.22;2.70;;;;;;;-144.31;100.00;58022.63;5034516;28;20077;-60
2023/01/16 16:37:27;;;;;;;2.70;1.73;;;;;;;-144.31;100.00;58022.63;5028830;28;20059;-60
2023/01/16 16:41:06;;;;;;;4.10;2.00;;;;;;;-144.31;100.00;58022.63;5037295;28;20115;-60
2023/01/16 16:45:08;;;;;;;3.33;1.60;;;;;;;-144.31;100.00;58022.63;5032100;28;20206;-59
2023/01/16 16:48:35;;;;;;;3.15;1.80;;;;;;;-144.31;100.00;58022.63;5029513;28;20040;-60
2023/01/16 16:52:22;;;;;;;6.22;3.10;;;;;;;-144.31;100.00;58022.63;5032737;28;20029;-59
2023/01/16 16:56:07;;;;;;;4.65;2.45;;;;;;;-144.31;100.00;58022.63;5029086;28;20036;-59
2023/01/16 16:59:37;;;;;;;1.65;1.50;;;;;;;-144.31;100.00;58022.63;5036112;28;20057;-60
2023/01/16 17:03:04;;;;;;;3.42;1.60;;;;;;;-144.31;100.00;58022.63;5033615;28;20041;-60
2023/01/16 17:06:29;;;;;;;3.92;2.05;;;;;;;-144.31;100.00;58022.63;5033510;28;20536;-59
2023/01/16 17:09:53;;;;;;;1.73;1.42;;;;;;;-144.31;100.00;58022.63;5027881;28;20528;-59
2023/01/16 17:13:18;;;;;;;1.98;1.48;;;;;;;-144.31;100.00;58022.63;5035667;28;20450;-59
2023/01/16 17:16:43;;;;;;;3.15;1.50;;;;;;;-144.31;100.00;58022.63;5024942;28;20398;-59
2023/01/16 17:20:17;;;;;;;2.50;1.60;;;;;;;-144.31;100.00;58022.63;5027545;28;20226;-59
2023/01/16 17:23:41;;;;;;;2.45;1.60;;;;;;;-144.31;100.00;58022.63;5034487;28;20083;-60
2023/01/16 17:27:10;;;;;;;2.10;1.50;;;;;;;-144.31;100.00;58022.63;5032522;28;20049;-58
2023/01/16 17:30:35;;;;;;;2.95;1.50;;;;;;;-144.31;100.00;58022.63;5032026;28;20043;-59
2023/01/16 17:34:14;;;;;;;2.38;1.50;;;;;;;-144.31;100.00;58022.63;5032263;28;20041;-59
2023/01/16 17:37:37;;;;;;;4.43;2.13;;;;;;;-144.31;100.00;58022.63;5032334;28;20037;-58